sensor_id;sensor_type;location;lat;lon;timestamp;pressure;altitude;pressure_sealevel;temperature;humidity
48386;BME280;34644;47.964;7.982;2022-08-01T00:02:44;96819.19;;;22.91;45.34
48386;BME280;34644;47.964;7.982;2022-08-01T00:09:45;96813.34;;;22.89;45.48
48386;BME280;34644;47.964;7.982;2022-08-01T00:16:45;96818.22;;;22.87;45.76
48386;BME280;34644;47.964;7.982;2022-08-01T00:23:45;96821.53;;;22.84;45.85
48386;BME280;34644;47.964;7.982;2022-08-01T00:30:46;96816.88;;;22.75;46.04
48386;BME280;34644;47.964;7.982;2022-08-01T00:37:53;96825.59;;;22.72;45.94
48386;BME280;34644;47.964;7.982;2022-08-01T00:44:57;96815.75;;;22.68;46.35
48386;BME280;34644;47.964;7.982;2022-08-01T00:51:57;96817.28;;;22.60;46.61
48386;BME280;34644;47.964;7.982;2022-08-01T00:59:01;96819.97;;;22.60;46.21
48386;BME280;34644;47.964;7.982;2022-08-01T01:06:11;96823.44;;;22.61;46.54
48386;BME280;34644;47.964;7.982;2022-08-01T01:13:16;96823.75;;;22.59;46.60
48386;BME280;34644;47.964;7.982;2022-08-01T01:20:18;96820.72;;;22.52;46.90
48386;BME280;34644;47.964;7.982;2022-08-01T01:27:21;96815.94;;;22.49;47.03
48386;BME280;34644;47.964;7.982;2022-08-01T01:34:24;96823.13;;;22.39;47.08
48386;BME280;34644;47.964;7.982;2022-08-01T01:41:27;96818.38;;;22.36;47.06
48386;BME280;34644;47.964;7.982;2022-08-01T01:48:28;96812.03;;;22.32;47.24
48386;BME280;34644;47.964;7.982;2022-08-01T01:55:29;96821.88;;;22.23;47.57
48386;BME280;34644;47.964;7.982;2022-08-01T02:02:30;96830.72;;;22.23;47.45
48386;BME280;34644;47.964;7.982;2022-08-01T02:09:30;96832.59;;;22.23;47.60
48386;BME280;34644;47.964;7.982;2022-08-01T02:16:33;96835.88;;;22.20;47.36
48386;BME280;34644;47.964;7.982;2022-08-01T02:23:34;96832.34;;;22.11;47.74
48386;BME280;34644;47.964;7.982;2022-08-01T02:30:37;96824.63;;;22.09;47.53
48386;BME280;34644;47.964;7.982;2022-08-01T02:37:39;96828.88;;;22.10;47.61
48386;BME280;34644;47.964;7.982;2022-08-01T02:44:41;96826.41;;;22.00;47.72
48386;BME280;34644;47.964;7.982;2022-08-01T02:51:41;96834.25;;;21.96;47.94
48386;BME280;34644;47.964;7.982;2022-08-01T02:58:43;96829.72;;;21.83;48.54
48386;BME280;34644;47.964;7.982;2022-08-01T03:05:45;96825.66;;;21.85;48.36
48386;BME280;34644;47.964;7.982;2022-08-01T03:12:46;96817.41;;;21.82;48.17
48386;BME280;34644;47.964;7.982;2022-08-01T03:19:47;96826.25;;;21.82;48.45
48386;BME280;34644;47.964;7.982;2022-08-01T03:26:49;96826.44;;;21.86;48.21
48386;BME280;34644;47.964;7.982;2022-08-01T03:33:51;96832.41;;;21.83;48.07
48386;BME280;34644;47.964;7.982;2022-08-01T03:41:02;96833.13;;;21.75;48.37
48386;BME280;34644;47.964;7.982;2022-08-01T03:48:10;96835.41;;;21.67;48.31
48386;BME280;34644;47.964;7.982;2022-08-01T03:55:13;96829.06;;;21.63;48.47
48386;BME280;34644;47.964;7.982;2022-08-01T04:02:16;96828.66;;;21.56;49.03
48386;BME280;34644;47.964;7.982;2022-08-01T04:09:18;96828.66;;;21.56;48.75
48386;BME280;34644;47.964;7.982;2022-08-01T04:16:19;96818.03;;;21.51;48.87
48386;BME280;34644;47.964;7.982;2022-08-01T04:23:20;96822.81;;;21.54;49.01
48386;BME280;34644;47.964;7.982;2022-08-01T04:30:26;96822.81;;;21.54;48.86
48386;BME280;34644;47.964;7.982;2022-08-01T04:37:27;96820.22;;;21.49;48.83
48386;BME280;34644;47.964;7.982;2022-08-01T04:44:28;96833.91;;;21.47;49.13
48386;BME280;34644;47.964;7.982;2022-08-01T04:51:28;96833.03;;;21.52;49.09
48386;BME280;34644;47.964;7.982;2022-08-01T04:58:28;96826.09;;;21.65;49.24
48386;BME280;34644;47.964;7.982;2022-08-01T05:05:28;96813.34;;;21.71;49.59
48386;BME280;34644;47.964;7.982;2022-08-01T05:12:30;96813.34;;;21.71;49.77
48386;BME280;34644;47.964;7.982;2022-08-01T05:19:32;96819.78;;;21.69;49.54
48386;BME280;34644;47.964;7.982;2022-08-01T05:26:32;96821.28;;;21.76;49.58
48386;BME280;34644;47.964;7.982;2022-08-01T05:33:33;96826.34;;;21.77;49.96
48386;BME280;34644;47.964;7.982;2022-08-01T05:40:33;96824.47;;;21.78;49.72
48386;BME280;34644;47.964;7.982;2022-08-01T05:47:35;96816.13;;;21.79;49.92
48386;BME280;34644;47.964;7.982;2022-08-01T05:54:36;96818.22;;;21.82;50.42
48386;BME280;34644;47.964;7.982;2022-08-01T06:01:36;96814.53;;;21.78;50.67
48386;BME280;34644;47.964;7.982;2022-08-01T06:08:36;96820.69;;;21.79;50.92
48386;BME280;34644;47.964;7.982;2022-08-01T06:15:37;96819.72;;;21.75;51.18
48386;BME280;34644;47.964;7.982;2022-08-01T06:22:37;96817.41;;;21.82;50.82
48386;BME280;34644;47.964;7.982;2022-08-01T06:29:37;96814.13;;;21.85;50.77
48386;BME280;34644;47.964;7.982;2022-08-01T06:36:38;96811.53;;;21.94;50.45
48386;BME280;34644;47.964;7.982;2022-08-01T06:43:38;96815.28;;;21.93;50.69
48386;BME280;34644;47.964;7.982;2022-08-01T06:50:38;96804.13;;;21.99;50.69
48386;BME280;34644;47.964;7.982;2022-08-01T06:57:48;96804.28;;;22.17;49.93
48386;BME280;34644;47.964;7.982;2022-08-01T07:04:49;96806.97;;;22.17;50.02
48386;BME280;34644;47.964;7.982;2022-08-01T07:11:49;96806.56;;;22.23;49.88
48386;BME280;34644;47.964;7.982;2022-08-01T07:18:52;96797.41;;;22.25;49.91
48386;BME280;34644;47.964;7.982;2022-08-01T07:25:52;96796.75;;;22.19;49.83
48386;BME280;34644;47.964;7.982;2022-08-01T07:32:53;96797.81;;;22.32;49.80
48386;BME280;34644;47.964;7.982;2022-08-01T07:39:53;96791.88;;;22.44;49.57
48386;BME280;34644;47.964;7.982;2022-08-01T07:46:53;96796.00;;;22.41;48.84
48386;BME280;34644;47.964;7.982;2022-08-01T07:53:53;96783.38;;;22.28;49.83
48386;BME280;34644;47.964;7.982;2022-08-01T08:00:54;96783.50;;;22.22;50.26
48386;BME280;34644;47.964;7.982;2022-08-01T08:07:54;96778.81;;;22.28;50.41
48386;BME280;34644;47.964;7.982;2022-08-01T08:14:55;96771.38;;;22.25;50.72
48386;BME280;34644;47.964;7.982;2022-08-01T08:21:55;96771.84;;;22.27;51.39
48386;BME280;34644;47.964;7.982;2022-08-01T08:28:55;96771.28;;;22.30;51.99
48386;BME280;34644;47.964;7.982;2022-08-01T08:35:56;96759.91;;;22.33;51.96
48386;BME280;34644;47.964;7.982;2022-08-01T08:42:56;96771.63;;;22.37;51.46
48386;BME280;34644;47.964;7.982;2022-08-01T08:49:58;96771.00;;;22.40;51.33
48386;BME280;34644;47.964;7.982;2022-08-01T08:56:59;96768.81;;;22.43;50.80
48386;BME280;34644;47.964;7.982;2022-08-01T09:04:01;96767.09;;;22.47;51.09
48386;BME280;34644;47.964;7.982;2022-08-01T09:11:01;96772.38;;;22.52;50.76
48386;BME280;34644;47.964;7.982;2022-08-01T09:18:01;96771.56;;;22.51;51.18
48386;BME280;34644;47.964;7.982;2022-08-01T09:32:05;96770.03;;;22.59;51.83
48386;BME280;34644;47.964;7.982;2022-08-01T09:39:11;96771.78;;;22.64;51.96
48386;BME280;34644;47.964;7.982;2022-08-01T09:46:12;96767.72;;;22.66;51.89
48386;BME280;34644;47.964;7.982;2022-08-01T09:53:12;96765.97;;;22.70;51.75
48386;BME280;34644;47.964;7.982;2022-08-01T10:00:16;96769.16;;;22.72;51.11
48386;BME280;34644;47.964;7.982;2022-08-01T10:07:18;96767.44;;;22.76;51.15
48386;BME280;34644;47.964;7.982;2022-08-01T10:14:18;96766.03;;;22.79;51.01
48386;BME280;34644;47.964;7.982;2022-08-01T10:21:20;96749.59;;;22.81;50.93
48386;BME280;34644;47.964;7.982;2022-08-01T10:28:20;96741.72;;;22.84;50.83
48386;BME280;34644;47.964;7.982;2022-08-01T10:35:21;96743.00;;;22.87;50.61
48386;BME280;34644;47.964;7.982;2022-08-01T10:42:21;96727.81;;;22.91;50.61
48386;BME280;34644;47.964;7.982;2022-08-01T10:49:22;96722.94;;;22.93;50.62
48386;BME280;34644;47.964;7.982;2022-08-01T10:56:26;96725.50;;;22.98;50.59
48386;BME280;34644;47.964;7.982;2022-08-01T11:03:38;96721.69;;;22.99;50.31
48386;BME280;34644;47.964;7.982;2022-08-01T11:10:39;96719.97;;;23.03;50.27
48386;BME280;34644;47.964;7.982;2022-08-01T11:17:41;96710.50;;;23.06;50.26
48386;BME280;34644;47.964;7.982;2022-08-01T11:31:47;96692.03;;;23.13;51.12
48386;BME280;34644;47.964;7.982;2022-08-01T11:39:10;96676.09;;;23.17;50.65
48386;BME280;34644;47.964;7.982;2022-08-01T11:46:10;96676.56;;;23.19;50.63
48386;BME280;34644;47.964;7.982;2022-08-01T11:53:12;96670.25;;;23.23;50.60
48386;BME280;34644;47.964;7.982;2022-08-01T12:00:15;96675.31;;;23.25;50.42
48386;BME280;34644;47.964;7.982;2022-08-01T12:07:17;96678.47;;;23.27;50.51
48386;BME280;34644;47.964;7.982;2022-08-01T12:14:18;96673.88;;;23.27;50.28
48386;BME280;34644;47.964;7.982;2022-08-01T12:21:19;96671.38;;;23.31;50.31
48386;BME280;34644;47.964;7.982;2022-08-01T12:28:20;96671.22;;;23.36;50.36
48386;BME280;34644;47.964;7.982;2022-08-01T12:35:21;96672.47;;;23.39;50.04
48386;BME280;34644;47.964;7.982;2022-08-01T12:42:24;96666.78;;;23.40;50.04
48386;BME280;34644;47.964;7.982;2022-08-01T12:49:25;96668.50;;;23.45;50.13
48386;BME280;34644;47.964;7.982;2022-08-01T12:56:32;96664.72;;;23.46;50.22
48386;BME280;34644;47.964;7.982;2022-08-01T13:03:33;96650.97;;;23.47;50.19
48386;BME280;34644;47.964;7.982;2022-08-01T13:10:33;96649.25;;;23.52;50.00
48386;BME280;34644;47.964;7.982;2022-08-01T13:17:34;96649.25;;;23.52;49.88
48386;BME280;34644;47.964;7.982;2022-08-01T13:24:38;96626.78;;;23.56;49.79
48386;BME280;34644;47.964;7.982;2022-08-01T13:31:39;96629.16;;;23.58;49.84
48386;BME280;34644;47.964;7.982;2022-08-01T13:38:40;96633.88;;;23.61;49.58
48386;BME280;34644;47.964;7.982;2022-08-01T13:46:00;96632.31;;;23.60;49.56
48386;BME280;34644;47.964;7.982;2022-08-01T13:53:02;96620.59;;;23.64;49.44
48386;BME280;34644;47.964;7.982;2022-08-01T14:00:06;96619.16;;;23.67;49.56
48386;BME280;34644;47.964;7.982;2022-08-01T14:07:12;96622.66;;;23.67;49.71
48386;BME280;34644;47.964;7.982;2022-08-01T14:14:12;96618.06;;;23.68;49.82
48386;BME280;34644;47.964;7.982;2022-08-01T14:21:13;96607.13;;;23.73;49.50
48386;BME280;34644;47.964;7.982;2022-08-01T14:28:14;96609.34;;;23.71;49.65
48386;BME280;34644;47.964;7.982;2022-08-01T14:35:15;96606.66;;;23.71;49.60
48386;BME280;34644;47.964;7.982;2022-08-01T14:42:15;96611.25;;;23.71;49.86
48386;BME280;34644;47.964;7.982;2022-08-01T14:49:15;96619.00;;;23.72;49.83
48386;BME280;34644;47.964;7.982;2022-08-01T14:56:16;96617.88;;;23.73;49.79
48386;BME280;34644;47.964;7.982;2022-08-01T15:03:17;96624.53;;;23.76;49.44
48386;BME280;34644;47.964;7.982;2022-08-01T15:10:17;96626.91;;;23.77;49.60
48386;BME280;34644;47.964;7.982;2022-08-01T15:17:19;96615.97;;;23.82;49.46
48386;BME280;34644;47.964;7.982;2022-08-01T15:24:19;96629.41;;;23.82;49.65
48386;BME280;34644;47.964;7.982;2022-08-01T15:31:20;96631.03;;;23.83;49.46
48386;BME280;34644;47.964;7.982;2022-08-01T15:38:20;96641.50;;;23.85;49.38
48386;BME280;34644;47.964;7.982;2022-08-01T15:45:21;96631.50;;;23.86;49.70
48386;BME280;34644;47.964;7.982;2022-08-01T15:52:21;96629.28;;;23.88;49.38
48386;BME280;34644;47.964;7.982;2022-08-01T15:59:22;96620.09;;;23.89;49.62
48386;BME280;34644;47.964;7.982;2022-08-01T16:06:22;96625.94;;;23.91;49.40
48386;BME280;34644;47.964;7.982;2022-08-01T16:13:24;96630.25;;;23.92;49.51
48386;BME280;34644;47.964;7.982;2022-08-01T16:20:25;96639.91;;;23.93;49.64
48386;BME280;34644;47.964;7.982;2022-08-01T16:27:25;96629.13;;;23.93;49.35
48386;BME280;34644;47.964;7.982;2022-08-01T16:34:26;96625.00;;;23.95;49.84
48386;BME280;34644;47.964;7.982;2022-08-01T16:41:27;96633.88;;;23.96;50.17
48386;BME280;34644;47.964;7.982;2022-08-01T16:48:27;96620.09;;;23.97;50.14
48386;BME280;34644;47.964;7.982;2022-08-01T16:55:28;96626.28;;;23.98;50.29
48386;BME280;34644;47.964;7.982;2022-08-01T17:02:28;96613.72;;;24.02;50.17
48386;BME280;34644;47.964;7.982;2022-08-01T17:09:29;96617.25;;;24.02;50.25
48386;BME280;34644;47.964;7.982;2022-08-01T17:16:29;96623.88;;;24.05;50.05
48386;BME280;34644;47.964;7.982;2022-08-01T17:23:29;96647.44;;;24.08;50.30
48386;BME280;34644;47.964;7.982;2022-08-01T17:30:30;96652.50;;;24.10;50.13
48386;BME280;34644;47.964;7.982;2022-08-01T17:37:31;96662.97;;;24.11;50.01
48386;BME280;34644;47.964;7.982;2022-08-01T17:44:31;96664.09;;;24.10;50.13
48386;BME280;34644;47.964;7.982;2022-08-01T17:51:31;96688.00;;;24.12;49.80
48386;BME280;34644;47.964;7.982;2022-08-01T17:58:31;96708.09;;;24.14;49.95
48386;BME280;34644;47.964;7.982;2022-08-01T18:05:32;96724.56;;;24.13;50.21
48386;BME280;34644;47.964;7.982;2022-08-01T18:12:32;96792.81;;;24.26;51.23
48386;BME280;34644;47.964;7.982;2022-08-01T18:19:33;96872.03;;;24.16;52.37
48386;BME280;34644;47.964;7.982;2022-08-01T18:26:33;96847.00;;;24.15;53.79
48386;BME280;34644;47.964;7.982;2022-08-01T18:33:34;96843.50;;;24.06;54.18
48386;BME280;34644;47.964;7.982;2022-08-01T18:40:34;96842.16;;;23.77;55.79
48386;BME280;34644;47.964;7.982;2022-08-01T18:47:35;96830.63;;;23.77;57.26
48386;BME280;34644;47.964;7.982;2022-08-01T18:54:35;96848.50;;;23.73;58.63
48386;BME280;34644;47.964;7.982;2022-08-01T19:01:35;96849.59;;;23.72;58.08
48386;BME280;34644;47.964;7.982;2022-08-01T19:08:35;96839.44;;;23.69;59.02
48386;BME280;34644;47.964;7.982;2022-08-01T19:15:37;96836.94;;;23.72;59.02
48386;BME280;34644;47.964;7.982;2022-08-01T19:22:37;96836.00;;;23.77;58.96
48386;BME280;34644;47.964;7.982;2022-08-01T19:29:38;96829.03;;;23.76;60.04
48386;BME280;34644;47.964;7.982;2022-08-01T19:36:38;96821.28;;;23.74;58.55
48386;BME280;34644;47.964;7.982;2022-08-01T19:43:39;96830.28;;;23.70;58.97
48386;BME280;34644;47.964;7.982;2022-08-01T19:50:39;96855.72;;;23.63;59.37
48386;BME280;34644;47.964;7.982;2022-08-01T19:57:40;96867.91;;;23.61;59.12
48386;BME280;34644;47.964;7.982;2022-08-01T20:04:41;96864.44;;;23.60;59.29
48386;BME280;34644;47.964;7.982;2022-08-01T20:11:45;96852.72;;;23.56;59.05
48386;BME280;34644;47.964;7.982;2022-08-01T20:18:46;96866.13;;;23.47;59.71
48386;BME280;34644;47.964;7.982;2022-08-01T20:25:47;96881.53;;;23.24;59.17
48386;BME280;34644;47.964;7.982;2022-08-01T20:32:48;96876.44;;;23.23;59.00
48386;BME280;34644;47.964;7.982;2022-08-01T20:39:51;96887.81;;;23.20;58.84
48386;BME280;34644;47.964;7.982;2022-08-01T20:46:55;96881.34;;;23.21;58.86
48386;BME280;34644;47.964;7.982;2022-08-01T20:53:56;96888.25;;;23.13;58.60
48386;BME280;34644;47.964;7.982;2022-08-01T21:00:57;96897.00;;;23.19;58.48
48386;BME280;34644;47.964;7.982;2022-08-01T21:15:05;96886.50;;;23.08;58.02
48386;BME280;34644;47.964;7.982;2022-08-01T21:22:11;96887.31;;;23.09;57.86
48386;BME280;34644;47.964;7.982;2022-08-01T21:29:14;96883.94;;;22.81;57.90
48386;BME280;34644;47.964;7.982;2022-08-01T21:36:16;96880.56;;;22.98;57.82
48386;BME280;34644;47.964;7.982;2022-08-01T21:43:17;96893.22;;;22.97;57.47
48386;BME280;34644;47.964;7.982;2022-08-01T21:50:17;96887.84;;;22.97;57.25
48386;BME280;34644;47.964;7.982;2022-08-01T22:04:26;96906.28;;;22.90;57.39
48386;BME280;34644;47.964;7.982;2022-08-01T22:11:31;96931.78;;;22.79;57.41
48386;BME280;34644;47.964;7.982;2022-08-01T22:18:33;96930.34;;;22.72;57.43
48386;BME280;34644;47.964;7.982;2022-08-01T22:25:34;96931.91;;;22.73;57.61
48386;BME280;34644;47.964;7.982;2022-08-01T22:32:35;96941.75;;;22.78;57.23
48386;BME280;34644;47.964;7.982;2022-08-01T22:39:36;96933.81;;;22.73;57.10
48386;BME280;34644;47.964;7.982;2022-08-01T23:00:46;96947.06;;;22.69;57.11
48386;BME280;34644;47.964;7.982;2022-08-01T23:07:51;96944.09;;;22.71;57.00
48386;BME280;34644;47.964;7.982;2022-08-01T23:14:53;96944.78;;;22.63;56.92
48386;BME280;34644;47.964;7.982;2022-08-01T23:21:54;96946.53;;;22.45;57.20
48386;BME280;34644;47.964;7.982;2022-08-01T23:28:55;96959.72;;;22.55;57.37
48386;BME280;34644;47.964;7.982;2022-08-01T23:35:56;96956.44;;;22.58;57.05
48386;BME280;34644;47.964;7.982;2022-08-01T23:42:56;96954.34;;;22.55;57.09
48386;BME280;34644;47.964;7.982;2022-08-01T23:49:57;96950.41;;;22.52;57.23
48386;BME280;34644;47.964;7.982;2022-08-01T23:56:57;96944.56;;;22.50;57.17
